Time;durP1;ratioP1;P1;durP2;ratioP2;P2;SDS_P1;SDS_P2;PMS_P1;PMS_P2;Temp;Humidity;BMP_temperature;BMP_pressure;BME280_temperature;BME280_humidity;BME280_pressure;Samples;Min_cycle;Max_cycle;Signal;HPM_P1;HPM_P2
2021/08/28 00:00:51;;;;;;;6.63;5.23;;;12.90;99.90;;;;;;5054894;28;20237;-73
2021/08/28 00:03:19;;;;;;;8.70;5.80;;;12.90;99.90;;;;;;5047797;28;20203;-72
2021/08/28 00:05:46;;;;;;;7.43;5.33;;;12.90;99.90;;;;;;5049595;28;20447;-72
2021/08/28 00:08:13;;;;;;;7.77;4.90;;;12.90;99.90;;;;;;5051263;28;20210;-72
2021/08/28 00:10:41;;;;;;;9.20;5.13;;;12.90;99.90;;;;;;5046655;28;20668;-72
2021/08/28 00:13:08;;;;;;;8.60;5.20;;;13.00;99.90;;;;;;5050014;28;20221;-72
2021/08/28 00:15:35;;;;;;;8.60;5.30;;;12.90;99.90;;;;;;5047606;28;20615;-72
2021/08/28 00:18:04;;;;;;;9.17;5.23;;;12.90;99.90;;;;;;5040591;28;20203;-72
2021/08/28 00:20:31;;;;;;;6.40;4.60;;;12.90;99.90;;;;;;5043263;28;20215;-72
2021/08/28 00:22:58;;;;;;;5.93;4.80;;;12.90;99.90;;;;;;5042632;28;20225;-72
2021/08/28 00:25:25;;;;;;;6.63;4.90;;;13.00;99.90;;;;;;5048457;28;20618;-72
2021/08/28 00:27:51;;;;;;;5.60;5.00;;;12.90;99.90;;;;;;5049774;28;20196;-73
2021/08/28 00:30:18;;;;;;;5.60;4.53;;;12.90;99.90;;;;;;5055066;28;20565;-73
2021/08/28 00:32:45;;;;;;;6.27;4.80;;;12.90;99.90;;;;;;5050171;28;20209;-74
2021/08/28 00:35:13;;;;;;;5.90;4.97;;;13.00;99.90;;;;;;5055851;28;20207;-73
2021/08/28 00:37:40;;;;;;;6.60;4.43;;;12.90;99.90;;;;;;5051762;28;20555;-73
2021/08/28 00:40:08;;;;;;;7.93;4.53;;;13.00;99.90;;;;;;5052507;28;20221;-73
2021/08/28 00:42:46;;;;;;;6.93;4.63;;;13.10;99.90;;;;;;5050830;28;20207;-73
2021/08/28 00:45:13;;;;;;;6.03;4.63;;;13.10;99.90;;;;;;5058010;28;20260;-73
2021/08/28 00:47:40;;;;;;;6.07;4.33;;;13.10;99.90;;;;;;5055765;28;20652;-73
2021/08/28 00:50:08;;;;;;;5.07;4.57;;;13.10;99.90;;;;;;5060502;28;20194;-73
2021/08/28 00:52:36;;;;;;;6.87;4.27;;;13.10;99.90;;;;;;5060398;28;20243;-73
2021/08/28 00:55:04;;;;;;;6.93;4.43;;;13.20;99.90;;;;;;5064931;28;20251;-73
2021/08/28 00:57:31;;;;;;;4.77;3.97;;;13.20;99.90;;;;;;5053580;28;20199;-73
2021/08/28 00:59:58;;;;;;;5.30;4.23;;;13.20;99.90;;;;;;5052625;28;20716;-74
2021/08/28 01:02:28;;;;;;;5.53;4.07;;;13.20;99.90;;;;;;5055419;28;20207;-73
2021/08/28 01:05:04;;;;;;;6.20;3.50;;;13.20;99.90;;;;;;5059054;28;20198;-74
2021/08/28 01:07:37;;;;;;;3.80;3.50;;;13.20;99.90;;;;;;5047848;28;20660;-74
2021/08/28 01:10:09;;;;;;;4.00;3.60;;;13.20;99.90;;;;;;5059424;28;20202;-73
2021/08/28 01:12:41;;;;;;;5.73;4.33;;;13.30;99.90;;;;;;5056904;28;20207;-74
2021/08/28 01:15:10;;;;;;;5.70;4.00;;;13.30;99.90;;;;;;5051981;28;20203;-74
2021/08/28 01:17:40;;;;;;;4.77;4.27;;;13.30;99.90;;;;;;5052042;28;20213;-74
2021/08/28 01:20:14;;;;;;;5.43;4.03;;;13.30;99.90;;;;;;5055516;28;20242;-74
2021/08/28 01:22:42;;;;;;;4.53;4.13;;;13.40;99.90;;;;;;5054087;28;20206;-74
2021/08/28 01:25:12;;;;;;;8.83;4.77;;;13.40;99.90;;;;;;5059958;28;20199;-74
2021/08/28 01:27:45;;;;;;;5.50;4.77;;;13.40;99.90;;;;;;5047629;28;20206;-74
2021/08/28 01:30:14;;;;;;;5.33;4.73;;;13.40;99.90;;;;;;5057872;28;20204;-74
2021/08/28 01:32:43;;;;;;;6.30;4.77;;;13.40;99.90;;;;;;5061350;28;20202;-74
2021/08/28 01:35:11;;;;;;;6.90;4.83;;;13.30;99.90;;;;;;5068357;28;20563;-74
2021/08/28 01:37:41;;;;;;;5.93;4.90;;;13.40;99.90;;;;;;5056897;28;20202;-74
2021/08/28 01:40:10;;;;;;;7.10;5.27;;;13.30;99.90;;;;;;5053840;28;20223;-74
2021/08/28 01:42:38;;;;;;;6.20;5.37;;;13.30;99.90;;;;;;5053433;28;20203;-74
2021/08/28 01:45:11;;;;;;;6.30;5.63;;;13.30;99.90;;;;;;5060670;28;20205;-74
2021/08/28 01:47:39;;;;;;;7.03;5.87;;;13.30;99.90;;;;;;5057996;28;20260;-74
2021/08/28 01:50:09;;;;;;;12.43;6.20;;;13.40;99.90;;;;;;5065671;28;20578;-74
2021/08/28 01:52:36;;;;;;;8.97;5.83;;;13.30;99.90;;;;;;5055383;28;20573;-74
2021/08/28 01:55:04;;;;;;;8.87;6.87;;;13.40;99.90;;;;;;5053526;28;20195;-74
2021/08/28 01:57:31;;;;;;;8.30;6.10;;;13.40;99.90;;;;;;5051978;28;20202;-74
2021/08/28 02:00:00;;;;;;;7.73;6.03;;;13.40;99.90;;;;;;5052483;28;20223;-74
2021/08/28 02:02:27;;;;;;;8.37;6.30;;;13.40;99.90;;;;;;5056242;28;20194;-74
2021/08/28 02:04:56;;;;;;;8.70;6.83;;;13.40;99.90;;;;;;5053727;28;21804;-74
2021/08/28 02:07:31;;;;;;;9.47;6.83;;;13.40;99.90;;;;;;5050008;28;20203;-74
2021/08/28 02:10:03;;;;;;;8.23;6.40;;;13.40;99.90;;;;;;5059966;28;20684;-74
2021/08/28 02:12:37;;;;;;;9.50;7.37;;;13.40;99.90;;;;;;5057612;28;20199;-74
2021/08/28 02:15:08;;;;;;;8.50;6.87;;;13.50;99.90;;;;;;5052204;28;20237;-74
2021/08/28 02:17:41;;;;;;;8.60;6.70;;;13.40;99.90;;;;;;5049941;28;20665;-74
2021/08/28 02:20:11;;;;;;;7.90;6.87;;;13.40;99.90;;;;;;5054555;28;20590;-74
2021/08/28 02:22:41;;;;;;;9.77;6.90;;;13.40;99.90;;;;;;5052965;28;20210;-74
2021/08/28 02:25:22;;;;;;;8.50;7.27;;;13.40;99.90;;;;;;5053155;28;20199;-74
2021/08/28 02:27:53;;;;;;;8.93;7.27;;;13.50;99.90;;;;;;5057442;28;20198;-74
2021/08/28 02:30:21;;;;;;;8.83;7.20;;;13.50;99.90;;;;;;5046699;28;20199;-74
2021/08/28 02:32:51;;;;;;;10.23;8.37;;;13.50;99.90;;;;;;5050751;28;20205;-74
2021/08/28 02:35:20;;;;;;;11.27;7.67;;;13.40;99.90;;;;;;5049991;28;20199;-74
2021/08/28 02:37:48;;;;;;;9.70;7.27;;;13.40;99.90;;;;;;5050359;28;20215;-74
2021/08/28 02:40:19;;;;;;;10.03;7.63;;;13.50;99.90;;;;;;5061364;28;20688;-74
2021/08/28 02:42:46;;;;;;;9.83;8.03;;;13.50;99.90;;;;;;5067645;28;20206;-74
2021/08/28 02:45:17;;;;;;;9.40;7.40;;;13.50;99.90;;;;;;5052322;28;20412;-74
2021/08/28 02:47:46;;;;;;;8.33;7.13;;;13.40;99.90;;;;;;5051571;28;20209;-74
2021/08/28 02:50:15;;;;;;;11.10;8.17;;;13.50;99.90;;;;;;5051967;28;20195;-74
2021/08/28 02:52:45;;;;;;;10.60;7.67;;;13.50;99.90;;;;;;5052067;28;20241;-74
2021/08/28 02:55:14;;;;;;;9.60;7.70;;;13.50;99.90;;;;;;5052625;28;20285;-74
2021/08/28 02:57:45;;;;;;;9.73;7.97;;;13.50;99.90;;;;;;5060186;28;20808;-74
2021/08/28 03:00:13;;;;;;;11.40;8.63;;;13.50;99.90;;;;;;5051144;28;20222;-74
2021/08/28 03:02:41;;;;;;;9.87;7.80;;;13.50;99.90;;;;;;5052481;28;20203;-75
2021/08/28 03:05:12;;;;;;;11.87;8.50;;;13.40;99.90;;;;;;5050678;28;20199;-74
2021/08/28 03:07:40;;;;;;;10.93;8.77;;;13.40;99.90;;;;;;5051145;28;20621;-74
2021/08/28 03:10:11;;;;;;;12.17;9.70;;;13.40;99.90;;;;;;5051810;28;20724;-74
2021/08/28 03:12:39;;;;;;;14.40;10.07;;;13.50;99.90;;;;;;5041105;28;20206;-74
2021/08/28 03:15:07;;;;;;;11.77;9.47;;;13.50;99.90;;;;;;5048971;28;20609;-74
2021/08/28 03:17:36;;;;;;;11.90;9.33;;;13.50;99.90;;;;;;5048291;28;20210;-74
2021/08/28 03:20:06;;;;;;;13.73;9.57;;;13.50;99.90;;;;;;5044858;28;20689;-74
2021/08/28 03:22:33;;;;;;;14.27;10.27;;;13.50;99.90;;;;;;5051880;28;20211;-74
2021/08/28 03:25:02;;;;;;;14.17;9.90;;;13.50;99.90;;;;;;5051806;28;20210;-74
2021/08/28 03:27:31;;;;;;;14.70;10.97;;;13.50;99.90;;;;;;5050865;28;20199;-74
2021/08/28 03:29:59;;;;;;;13.80;10.57;;;13.50;99.90;;;;;;5050149;28;20191;-74
2021/08/28 03:32:26;;;;;;;14.20;11.33;;;13.50;99.90;;;;;;5051655;28;20649;-74
2021/08/28 03:34:53;;;;;;;14.03;10.93;;;13.50;99.90;;;;;;5051671;28;20575;-74
2021/08/28 03:37:21;;;;;;;14.33;11.37;;;13.50;99.90;;;;;;5052706;28;20199;-74
2021/08/28 03:39:49;;;;;;;16.57;11.83;;;13.50;99.90;;;;;;5051159;28;20222;-74
2021/08/28 03:42:15;;;;;;;16.13;11.97;;;13.50;99.90;;;;;;5051056;28;20213;-74
2021/08/28 03:44:44;;;;;;;15.30;11.63;;;13.50;99.90;;;;;;5051876;28;20552;-74
2021/08/28 03:47:14;;;;;;;16.93;11.40;;;13.50;99.90;;;;;;5058260;28;20791;-74
2021/08/28 03:49:42;;;;;;;17.50;12.10;;;13.50;99.90;;;;;;5050693;28;20675;-74
2021/08/28 03:52:08;;;;;;;16.27;11.37;;;13.50;99.90;;;;;;5051137;28;20649;-74
2021/08/28 03:54:35;;;;;;;14.93;11.33;;;13.50;99.90;;;;;;5050844;28;20202;-74
2021/08/28 03:57:02;;;;;;;15.27;11.43;;;13.50;99.90;;;;;;5051316;28;20199;-76
2021/08/28 03:59:29;;;;;;;14.83;11.00;;;13.50;99.90;;;;;;5051931;28;20204;-76
2021/08/28 04:01:57;;;;;;;15.20;10.93;;;13.50;99.90;;;;;;5045445;28;20206;-76
2021/08/28 04:04:24;;;;;;;15.17;11.43;;;13.50;99.90;;;;;;5054819;28;20203;-75
2021/08/28 04:06:51;;;;;;;13.33;10.23;;;13.50;99.90;;;;;;5055554;28;20207;-75
2021/08/28 04:09:18;;;;;;;13.73;10.50;;;13.50;99.90;;;;;;5051850;28;20289;-76
2021/08/28 04:11:44;;;;;;;13.50;9.67;;;13.50;99.90;;;;;;5052488;28;20699;-75
2021/08/28 04:14:11;;;;;;;16.37;10.90;;;13.50;99.90;;;;;;5049197;28;20201;-75
2021/08/28 04:16:38;;;;;;;17.70;12.33;;;13.50;99.90;;;;;;5052826;28;20203;-75
2021/08/28 04:19:06;;;;;;;13.83;10.77;;;13.50;99.90;;;;;;5046757;28;20286;-75
2021/08/28 04:21:33;;;;;;;20.73;15.20;;;13.40;99.90;;;;;;5044284;28;20602;-75
2021/08/28 04:24:00;;;;;;;15.40;11.27;;;13.50;99.90;;;;;;5045331;28;20637;-75
2021/08/28 04:26:27;;;;;;;14.23;11.10;;;13.40;99.90;;;;;;5048684;28;20228;-75
2021/08/28 04:28:55;;;;;;;14.13;10.80;;;13.40;99.90;;;;;;5047148;28;20209;-75
2021/08/28 04:31:22;;;;;;;14.73;11.13;;;13.40;99.90;;;;;;5050970;28;20249;-75
2021/08/28 04:33:49;;;;;;;14.43;10.60;;;13.50;99.90;;;;;;5051277;28;20207;-75
2021/08/28 04:36:17;;;;;;;13.37;10.27;;;13.50;99.90;;;;;;5050037;28;20676;-75
2021/08/28 04:38:44;;;;;;;13.37;9.63;;;13.50;99.90;;;;;;5048500;28;20211;-75
2021/08/28 04:41:11;;;;;;;10.93;8.77;;;13.50;99.90;;;;;;5050363;28;20336;-74
2021/08/28 04:43:38;;;;;;;12.17;8.23;;;13.40;99.90;;;;;;5051258;28;20199;-74
2021/08/28 04:46:05;;;;;;;12.83;7.77;;;13.40;99.90;;;;;;5049243;28;20207;-75
2021/08/28 04:48:32;;;;;;;8.00;6.60;;;13.40;99.90;;;;;;5050401;28;20207;-75
2021/08/28 04:50:59;;;;;;;10.03;8.03;;;13.20;99.90;;;;;;5050780;28;20566;-75
2021/08/28 04:53:27;;;;;;;10.00;6.40;;;13.30;99.90;;;;;;5047905;28;20878;-76
2021/08/28 04:55:55;;;;;;;8.67;7.23;;;13.40;99.90;;;;;;5056420;28;20211;-75
2021/08/28 04:58:21;;;;;;;9.13;6.90;;;13.50;99.90;;;;;;5053430;28;20203;-75
2021/08/28 05:00:48;;;;;;;9.77;6.53;;;13.40;99.90;;;;;;5054248;28;20219;-75
2021/08/28 05:03:15;;;;;;;8.13;6.20;;;13.50;99.90;;;;;;5053446;28;20203;-75
2021/08/28 05:05:42;;;;;;;8.03;5.73;;;13.40;99.90;;;;;;5050424;28;20203;-74
2021/08/28 05:08:09;;;;;;;7.53;6.23;;;13.50;99.90;;;;;;5045997;28;20203;-75
2021/08/28 05:10:37;;;;;;;8.60;6.63;;;13.50;99.90;;;;;;5050021;28;20576;-75
2021/08/28 05:13:04;;;;;;;8.17;6.20;;;13.60;99.90;;;;;;5050331;28;20643;-75
2021/08/28 05:15:31;;;;;;;6.67;5.97;;;13.60;99.90;;;;;;5050488;28;20630;-75
2021/08/28 05:17:58;;;;;;;7.87;6.17;;;13.70;99.90;;;;;;5052970;28;20563;-75
2021/08/28 05:20:25;;;;;;;8.23;6.30;;;13.70;99.90;;;;;;5050863;28;20219;-75
2021/08/28 05:22:52;;;;;;;7.70;5.63;;;13.70;99.90;;;;;;5054015;28;20577;-75
2021/08/28 05:25:19;;;;;;;7.97;6.43;;;13.60;99.90;;;;;;5054239;28;20546;-75
2021/08/28 05:27:47;;;;;;;10.27;6.60;;;13.60;99.90;;;;;;5053264;28;20209;-76
2021/08/28 05:30:14;;;;;;;10.23;7.03;;;13.70;99.90;;;;;;5060857;28;20206;-75
2021/08/28 05:32:43;;;;;;;9.23;7.27;;;13.90;99.90;;;;;;5054591;28;20199;-75
2021/08/28 05:35:11;;;;;;;9.10;6.77;;;13.90;99.90;;;;;;5045903;28;20237;-75
2021/08/28 05:37:38;;;;;;;12.27;7.60;;;13.90;99.90;;;;;;5042043;28;20195;-75
2021/08/28 05:40:07;;;;;;;11.63;8.60;;;13.90;99.90;;;;;;5039273;28;20353;-75
2021/08/28 05:42:34;;;;;;;11.97;8.80;;;13.90;99.90;;;;;;5044869;28;20873;-75
2021/08/28 05:45:03;;;;;;;12.43;9.03;;;13.80;99.90;;;;;;5052016;28;20199;-75
2021/08/28 05:47:30;;;;;;;13.90;10.23;;;13.90;99.90;;;;;;5048116;28;20206;-75
2021/08/28 05:49:56;;;;;;;12.60;9.47;;;13.90;99.90;;;;;;5044120;28;20210;-75
2021/08/28 05:52:23;;;;;;;12.73;9.57;;;13.90;99.90;;;;;;5044810;28;20199;-75
2021/08/28 05:54:50;;;;;;;13.00;9.40;;;13.90;99.90;;;;;;5047188;28;20207;-74
2021/08/28 05:57:17;;;;;;;13.13;8.67;;;13.90;99.90;;;;;;5051550;28;20199;-75
2021/08/28 05:59:44;;;;;;;17.50;12.43;;;13.90;99.90;;;;;;5049602;28;20588;-75
2021/08/28 06:02:12;;;;;;;12.50;8.60;;;14.00;99.90;;;;;;5044532;28;20211;-75
2021/08/28 06:04:39;;;;;;;9.67;7.27;;;13.90;99.90;;;;;;5050448;28;20195;-75
2021/08/28 06:07:07;;;;;;;10.77;7.17;;;14.00;99.90;;;;;;5047710;28;20206;-75
2021/08/28 06:09:33;;;;;;;10.43;7.40;;;14.00;99.90;;;;;;5044930;28;20207;-75
2021/08/28 06:12:00;;;;;;;9.40;6.60;;;14.00;99.90;;;;;;5040412;28;20750;-75
2021/08/28 06:14:27;;;;;;;10.40;7.20;;;14.10;99.90;;;;;;5043429;28;20206;-75
2021/08/28 06:16:54;;;;;;;13.70;8.30;;;14.30;99.90;;;;;;5050100;28;20195;-74
2021/08/28 06:19:22;;;;;;;11.27;8.10;;;14.30;99.90;;;;;;5045525;28;20242;-74
2021/08/28 06:21:49;;;;;;;10.50;7.83;;;14.30;99.90;;;;;;5048890;28;20346;-74
2021/08/28 06:24:16;;;;;;;10.77;7.53;;;14.40;99.90;;;;;;5044033;28;20210;-74
2021/08/28 06:26:42;;;;;;;10.20;8.03;;;14.50;99.90;;;;;;5042093;28;20202;-74
2021/08/28 06:29:09;;;;;;;10.73;7.80;;;14.60;99.90;;;;;;5044497;28;20199;-74
2021/08/28 06:31:36;;;;;;;11.57;7.97;;;14.60;99.90;;;;;;5044539;28;20207;-74
2021/08/28 06:34:03;;;;;;;10.50;7.87;;;14.70;99.90;;;;;;5040682;28;20199;-74
2021/08/28 06:36:31;;;;;;;10.40;7.97;;;14.60;99.90;;;;;;5055474;28;20213;-74
2021/08/28 06:38:58;;;;;;;10.55;8.18;;;14.60;99.90;;;;;;5044440;28;20681;-74
2021/08/28 06:41:25;;;;;;;13.30;8.73;;;14.70;99.90;;;;;;5045079;28;20215;-74
2021/08/28 06:43:52;;;;;;;12.60;8.35;;;14.50;99.90;;;;;;5039386;28;20661;-74
2021/08/28 06:46:19;;;;;;;12.57;9.17;;;14.50;99.90;;;;;;5044868;28;20699;-74
2021/08/28 06:48:46;;;;;;;12.90;8.83;;;14.60;99.90;;;;;;5044653;28;20215;-74
2021/08/28 06:51:13;;;;;;;12.68;8.82;;;14.70;99.90;;;;;;5047574;28;20219;-74
2021/08/28 06:53:41;;;;;;;12.70;9.67;;;14.70;99.90;;;;;;5037372;28;20330;-74
2021/08/28 06:56:08;;;;;;;10.83;8.53;;;14.70;99.90;;;;;;5043156;28;20220;-74
2021/08/28 06:58:34;;;;;;;14.32;9.27;;;14.60;99.90;;;;;;5049414;28;20206;-74
2021/08/28 07:01:02;;;;;;;11.67;8.60;;;14.60;99.90;;;;;;5046197;28;20216;-74
2021/08/28 07:03:29;;;;;;;12.48;9.40;;;14.50;99.90;;;;;;5053065;28;20214;-74
2021/08/28 07:05:56;;;;;;;11.57;8.55;;;14.60;99.90;;;;;;5042550;28;20196;-75
2021/08/28 07:08:23;;;;;;;12.80;9.23;;;14.60;99.90;;;;;;5046181;28;20199;-75
2021/08/28 07:10:51;;;;;;;11.53;8.47;;;14.70;99.90;;;;;;5044759;28;20221;-74
2021/08/28 07:13:18;;;;;;;12.65;9.38;;;14.80;99.90;;;;;;5043251;28;20205;-74
2021/08/28 07:15:44;;;;;;;12.90;9.38;;;14.90;99.90;;;;;;5044391;28;20207;-75
2021/08/28 07:18:11;;;;;;;13.25;9.73;;;15.00;99.90;;;;;;5049364;28;20568;-74
2021/08/28 07:20:39;;;;;;;14.32;10.25;;;14.80;99.90;;;;;;5050412;28;20203;-74
2021/08/28 07:23:06;;;;;;;12.70;9.65;;;15.00;99.90;;;;;;5047596;28;20203;-75
2021/08/28 07:25:37;;;;;;;14.13;9.98;;;15.20;99.90;;;;;;5046867;28;20361;-71
2021/08/28 07:28:05;;;;;;;14.07;10.27;;;15.50;99.90;;;;;;5041786;28;20210;-71
2021/08/28 07:30:32;;;;;;;13.23;9.18;;;15.60;99.90;;;;;;5039790;28;20207;-71
2021/08/28 07:32:59;;;;;;;10.07;8.00;;;15.70;99.90;;;;;;5053609;28;20632;-71
2021/08/28 07:35:27;;;;;;;11.40;8.93;;;15.60;99.90;;;;;;5046405;28;20244;-71
2021/08/28 07:37:54;;;;;;;11.32;8.27;;;15.70;99.90;;;;;;5043671;28;20211;-71
2021/08/28 07:40:23;;;;;;;12.20;9.07;;;15.70;99.90;;;;;;5048475;28;20205;-71
2021/08/28 07:42:51;;;;;;;12.10;8.73;;;16.00;99.90;;;;;;5041620;28;20309;-71
2021/08/28 07:45:19;;;;;;;10.90;8.60;;;16.20;99.90;;;;;;5042526;28;20195;-71
2021/08/28 07:47:46;;;;;;;12.35;8.50;;;16.20;99.90;;;;;;5038046;28;20701;-71
2021/08/28 07:50:13;;;;;;;10.50;8.45;;;16.40;99.90;;;;;;5046435;28;20206;-71
2021/08/28 07:52:42;;;;;;;11.77;8.85;;;16.30;99.90;;;;;;5047437;28;20199;-72
2021/08/28 07:55:10;;;;;;;11.85;8.60;;;16.60;99.90;;;;;;5046748;28;20214;-71
2021/08/28 07:57:37;;;;;;;11.95;8.98;;;16.60;99.90;;;;;;5046499;28;20517;-71
2021/08/28 08:00:05;;;;;;;13.65;8.75;;;16.80;99.90;;;;;;5041640;28;20594;-71
2021/08/28 08:02:33;;;;;;;11.07;7.80;;;16.70;99.90;;;;;;5046815;28;20219;-72
2021/08/28 08:05:00;;;;;;;11.85;9.18;;;16.60;99.90;;;;;;5047500;28;20207;-71
2021/08/28 08:07:27;;;;;;;11.18;8.55;;;16.50;99.90;;;;;;5041971;28;20575;-72
2021/08/28 08:09:54;;;;;;;11.75;7.75;;;16.50;99.90;;;;;;5045156;28;20294;-71
2021/08/28 08:12:21;;;;;;;12.88;8.70;;;16.40;99.90;;;;;;5038078;28;20203;-72
2021/08/28 08:14:48;;;;;;;10.70;8.18;;;16.40;99.90;;;;;;5044595;28;20199;-71
2021/08/28 08:17:15;;;;;;;10.70;7.80;;;16.50;99.90;;;;;;5043085;28;20662;-72
2021/08/28 08:19:43;;;;;;;9.82;7.47;;;16.60;99.90;;;;;;5047575;28;20203;-71
2021/08/28 08:22:11;;;;;;;11.85;7.72;;;16.50;99.90;;;;;;5050487;28;20673;-71
2021/08/28 08:24:38;;;;;;;12.23;7.53;;;16.50;99.90;;;;;;5045152;28;20203;-72
2021/08/28 08:27:05;;;;;;;9.45;7.68;;;16.70;99.90;;;;;;5046782;28;20588;-72
2021/08/28 08:29:32;;;;;;;10.68;8.57;;;16.80;99.90;;;;;;5044411;28;20209;-72
2021/08/28 08:31:59;;;;;;;10.55;7.25;;;16.60;99.90;;;;;;5045084;28;20202;-72
2021/08/28 08:34:25;;;;;;;10.05;7.00;;;16.60;99.90;;;;;;5039480;28;20206;-71
2021/08/28 08:36:54;;;;;;;8.80;7.28;;;16.60;99.90;;;;;;5040378;28;20203;-72
2021/08/28 08:39:21;;;;;;;9.70;7.32;;;16.70;99.90;;;;;;5043010;28;20203;-72
2021/08/28 08:41:50;;;;;;;9.30;7.55;;;16.90;99.90;;;;;;5048402;28;20229;-89
2021/08/28 08:44:17;;;;;;;8.27;6.65;;;16.90;99.90;;;;;;5043147;28;20633;-90
2021/08/28 08:46:45;;;;;;;10.18;7.43;;;17.10;99.90;;;;;;5043431;28;20755;-90
2021/08/28 08:49:13;;;;;;;8.50;6.50;;;17.20;99.90;;;;;;5044772;28;20215;-90
2021/08/28 08:51:42;;;;;;;6.75;5.75;;;17.10;99.90;;;;;;5036152;28;20555;-73
2021/08/28 08:54:10;;;;;;;7.72;6.35;;;17.20;99.90;;;;;;5033442;28;20234;-72
2021/08/28 08:56:37;;;;;;;9.30;7.53;;;17.10;99.90;;;;;;5050043;28;20214;-72
2021/08/28 08:59:05;;;;;;;9.73;7.35;;;17.10;99.90;;;;;;5045484;28;20269;-72
2021/08/28 09:01:32;;;;;;;9.65;7.30;;;16.90;99.90;;;;;;5043267;28;20234;-72
2021/08/28 09:03:58;;;;;;;9.65;7.63;;;16.80;99.90;;;;;;5045580;28;20205;-72
2021/08/28 09:06:25;;;;;;;10.23;7.38;;;17.00;99.90;;;;;;5042411;28;20214;-72
2021/08/28 09:08:52;;;;;;;12.27;8.32;;;17.20;99.90;;;;;;5040232;28;20213;-72
2021/08/28 09:11:24;;;;;;;10.05;7.75;;;17.00;99.90;;;;;;5042450;28;20688;-72
2021/08/28 09:13:51;;;;;;;10.45;7.45;;;17.10;99.90;;;;;;5041759;28;20207;-72
2021/08/28 09:16:31;;;;;;;8.85;6.63;;;17.10;99.90;;;;;;5038884;28;20214;-72
2021/08/28 09:18:58;;;;;;;9.10;7.10;;;17.10;99.90;;;;;;5049526;28;20227;-72
2021/08/28 09:21:32;;;;;;;11.57;7.68;;;17.10;99.90;;;;;;5047877;28;20219;-72
2021/08/28 09:24:01;;;;;;;12.02;6.60;;;17.10;99.90;;;;;;5045561;28;20211;-72
2021/08/28 09:26:33;;;;;;;7.63;5.95;;;17.00;99.90;;;;;;5042729;28;20211;-72
2021/08/28 09:29:00;;;;;;;7.88;6.13;;;16.90;99.90;;;;;;5039945;28;20268;-72
2021/08/28 09:31:42;;;;;;;8.40;6.47;;;17.20;99.90;;;;;;5041607;28;20203;-72
2021/08/28 09:34:22;;;;;;;8.00;6.75;;;17.20;99.90;;;;;;5042826;28;20568;-72
2021/08/28 09:36:58;;;;;;;7.68;6.28;;;17.20;99.90;;;;;;5043452;28;20677;-72
2021/08/28 09:39:38;;;;;;;6.75;5.38;;;17.40;99.90;;;;;;5043224;28;20200;-72
2021/08/28 09:42:09;;;;;;;7.57;5.35;;;17.60;99.90;;;;;;5042982;28;20309;-71
2021/08/28 09:44:38;;;;;;;6.85;5.28;;;17.50;99.90;;;;;;5046369;28;20215;-70
2021/08/28 09:47:13;;;;;;;8.65;6.13;;;17.50;99.90;;;;;;5038506;28;20203;-71
2021/08/28 09:49:43;;;;;;;9.40;5.65;;;17.60;99.90;;;;;;5038000;28;20207;-71
2021/08/28 09:52:11;;;;;;;7.20;6.15;;;17.80;99.90;;;;;;5046644;28;20207;-73
2021/08/28 09:54:39;;;;;;;8.48;6.20;;;17.80;99.90;;;;;;5042945;28;20738;-72
2021/08/28 09:57:06;;;;;;;8.52;6.25;;;17.80;99.90;;;;;;5041672;28;20689;-70
2021/08/28 09:59:35;;;;;;;6.78;5.20;;;17.80;99.90;;;;;;5046157;28;20562;-71
2021/08/28 10:02:07;;;;;;;8.27;5.90;;;17.60;99.90;;;;;;5044206;28;20223;-72
2021/08/28 10:04:49;;;;;;;8.75;5.28;;;17.60;99.90;;;;;;5047076;28;20302;-71
2021/08/28 10:07:20;;;;;;;7.78;5.20;;;17.60;99.90;;;;;;5041103;28;20215;-71
2021/08/28 10:09:48;;;;;;;8.52;6.10;;;17.60;99.90;;;;;;5041802;28;20264;-70
2021/08/28 10:12:17;;;;;;;6.97;5.93;;;17.50;99.90;;;;;;5065596;23;20235;-77
2021/08/28 10:14:46;;;;;;;6.10;5.50;;;17.40;99.90;;;;;;5040148;28;20679;-76
2021/08/28 10:17:13;;;;;;;8.20;5.72;;;17.20;99.90;;;;;;5044179;28;20203;-76
2021/08/28 10:19:41;;;;;;;6.20;5.57;;;17.20;99.90;;;;;;5042974;28;20237;-76
2021/08/28 10:22:12;;;;;;;5.97;5.25;;;17.30;99.90;;;;;;5036202;28;20711;-75
2021/08/28 10:24:58;;;;;;;5.15;4.63;;;17.10;99.90;;;;;;5041318;28;20598;-76
2021/08/28 10:27:26;;;;;;;5.00;4.50;;;17.10;99.90;;;;;;5043428;28;20672;-76
2021/08/28 10:29:55;;;;;;;6.20;4.70;;;17.20;99.90;;;;;;5044274;28;20318;-77
2021/08/28 10:32:23;;;;;;;7.65;5.43;;;17.00;99.90;;;;;;5045258;28;20866;-78
2021/08/28 10:34:51;;;;;;;6.47;5.78;;;17.20;99.90;;;;;;5036252;28;20207;-78
2021/08/28 10:37:18;;;;;;;7.05;5.72;;;17.10;99.90;;;;;;5037004;28;20208;-79
2021/08/28 10:39:48;;;;;;;5.15;4.65;;;16.90;99.90;;;;;;5045036;28;20675;-80
2021/08/28 10:42:15;;;;;;;5.50;4.53;;;16.70;99.90;;;;;;5041659;28;20223;-79
2021/08/28 10:44:42;;;;;;;4.78;4.35;;;16.40;99.90;;;;;;5033524;28;20217;-79
2021/08/28 10:47:15;;;;;;;5.28;4.47;;;16.20;99.90;;;;;;5042709;28;20579;-80
2021/08/28 10:49:45;;;;;;;5.78;5.22;;;16.10;99.90;;;;;;5042283;28;20206;-80
2021/08/28 10:52:18;;;;;;;6.80;5.18;;;16.00;99.90;;;;;;5038100;28;20211;-81
2021/08/28 10:54:53;;;;;;;7.85;5.55;;;16.00;99.90;;;;;;5036168;28;20216;-78
2021/08/28 10:57:25;;;;;;;7.38;5.40;;;16.00;99.90;;;;;;5032770;28;20213;-78
2021/08/28 11:00:03;;;;;;;6.00;5.15;;;16.00;99.90;;;;;;5041613;28;20720;-79
2021/08/28 11:03:03;;;;;;;7.45;5.70;;;16.10;99.90;;;;;;5035075;28;20453;-79
2021/08/28 11:05:31;;;;;;;6.00;5.38;;;16.20;99.90;;;;;;5040150;28;20216;-77
2021/08/28 11:07:58;;;;;;;6.72;5.43;;;16.10;99.90;;;;;;5034038;28;20650;-76
2021/08/28 11:10:26;;;;;;;7.10;5.43;;;16.20;99.90;;;;;;5036034;28;20211;-79
2021/08/28 11:12:59;;;;;;;5.95;5.35;;;16.30;99.90;;;;;;5037265;28;20223;-78
2021/08/28 11:15:42;;;;;;;7.05;5.55;;;16.40;99.90;;;;;;5036520;28;20203;-80
2021/08/28 11:18:13;;;;;;;6.57;5.55;;;16.70;99.90;;;;;;5034151;28;20346;-76
2021/08/28 11:20:41;;;;;;;7.95;6.03;;;16.80;99.90;;;;;;5039998;28;20210;-78
2021/08/28 11:23:11;;;;;;;7.22;6.07;;;17.00;99.90;;;;;;5038649;28;20333;-78
2021/08/28 11:25:40;;;;;;;6.50;5.50;;;17.10;99.90;;;;;;5034193;28;20885;-78
2021/08/28 11:28:08;;;;;;;8.38;5.50;;;16.90;99.90;;;;;;5048245;28;20203;-78
2021/08/28 11:30:55;;;;;;;7.55;5.30;;;17.00;99.90;;;;;;5042878;28;20203;-78
2021/08/28 11:33:26;;;;;;;7.45;5.78;;;17.00;99.90;;;;;;5044027;28;20195;-83
2021/08/28 11:35:55;;;;;;;6.85;5.72;;;17.10;99.90;;;;;;5042182;28;20316;-80
2021/08/28 11:38:34;;;;;;;7.97;6.20;;;17.40;99.90;;;;;;5048371;28;20203;-76
2021/08/28 11:41:03;;;;;;;6.63;5.47;;;17.50;99.90;;;;;;5050306;28;20574;-78
2021/08/28 11:43:34;;;;;;;6.72;6.03;;;17.40;99.90;;;;;;5043998;28;20226;-78
2021/08/28 11:46:03;;;;;;;8.57;6.00;;;17.50;99.90;;;;;;5048722;28;20203;-77
2021/08/28 11:48:33;;;;;;;7.57;6.30;;;17.40;99.90;;;;;;5049262;28;20272;-80
2021/08/28 11:51:00;;;;;;;7.60;6.07;;;17.40;99.90;;;;;;5046132;28;20199;-79
2021/08/28 11:53:29;;;;;;;9.05;7.20;;;17.30;99.90;;;;;;5044135;28;20198;-78
2021/08/28 11:56:06;;;;;;;7.60;6.38;;;17.40;99.90;;;;;;5043238;28;20687;-76
2021/08/28 11:58:33;;;;;;;7.10;6.13;;;17.60;99.90;;;;;;5040893;28;20212;-79
2021/08/28 12:01:00;;;;;;;6.68;5.93;;;17.70;99.90;;;;;;5036921;28;20210;-78
2021/08/28 12:03:27;;;;;;;7.82;6.53;;;18.30;99.90;;;;;;5047762;28;20222;-78
2021/08/28 12:05:55;;;;;;;7.93;6.90;;;18.60;99.90;;;;;;5041934;28;20211;-78
2021/08/28 12:08:22;;;;;;;8.57;7.28;;;18.80;99.90;;;;;;5043510;28;20587;-78
2021/08/28 12:10:49;;;;;;;7.78;6.55;;;18.60;99.90;;;;;;5046256;28;20663;-78
2021/08/28 12:13:17;;;;;;;7.30;6.35;;;18.30;99.90;;;;;;5046549;28;20626;-78
2021/08/28 12:15:48;;;;;;;7.78;6.43;;;18.20;99.90;;;;;;5046954;28;20207;-78
2021/08/28 12:18:27;;;;;;;8.07;5.88;;;18.20;99.90;;;;;;5044991;28;20206;-78
2021/08/28 12:20:55;;;;;;;5.95;5.35;;;18.40;99.90;;;;;;5039571;28;20207;-76
2021/08/28 12:23:28;;;;;;;7.45;6.18;;;18.70;99.90;;;;;;5045885;28;20226;-76
2021/08/28 12:25:55;;;;;;;6.88;5.55;;;18.80;99.90;;;;;;5044448;28;20670;-79
2021/08/28 12:28:22;;;;;;;6.68;5.40;;;18.80;99.90;;;;;;5046942;28;20672;-78
2021/08/28 12:30:54;;;;;;;4.82;4.32;;;18.80;99.90;;;;;;5041434;28;20565;-77
2021/08/28 12:33:25;;;;;;;5.00;4.40;;;19.10;99.90;;;;;;5043152;28;20208;-77
2021/08/28 12:35:52;;;;;;;4.47;3.70;;;19.00;99.90;;;;;;5043525;28;20257;-78
2021/08/28 12:38:20;;;;;;;5.72;4.72;;;18.80;99.90;;;;;;5034982;28;20239;-77
2021/08/28 12:40:48;;;;;;;12.18;6.88;;;18.80;99.90;;;;;;5043754;28;20207;-76
2021/08/28 12:43:17;;;;;;;10.45;6.85;;;19.10;99.90;;;;;;5035314;28;20223;-76
2021/08/28 12:45:45;;;;;;;6.97;6.22;;;19.10;99.90;;;;;;5046587;28;20256;-77
2021/08/28 12:48:17;;;;;;;7.80;6.05;;;19.40;99.90;;;;;;5044228;28;20203;-76